Portada
METAR-TAF:

METAR-TAF

Aeroports :

Khujand, Tadjikistan

latitud: 40-12-55N, longitud: 069-41-41E, altitud: 442 m

Observació

L'informe es va fer fa 19 minuts, a les 18:00 UTC
Vent calma
Temperatura -4°C
Humitat 80%
Pressió 1028 hPa
Visibilitat: 3600 m
boirina

METAR: UTDL 251800Z 00000MPS 3600 BR NSC M04/M07 Q1028 R26/CLRD70 NOSIG RMK QFE733/0977

Hora: 23:19 (18:19 UTC)

Pronòstic

L'informe es va fer fa 3 hores i 19 minuts, a les 15:00 UTC
Pronòstic vàlid del 25 a les 16 UTC al 26 a les 04 UTC
Vent 10 kt del Oest/Sud-Oest
Visibilitat: 3100 m
Núvols disperses a una alçada de 8000 ft
boirina
Evolucionant progressivament
l' 25 a les 17 UTC al 25 a les 19 UTC
Vent 4 kt amb direcció variable

TAF: UTDL 251500Z 2516/2604 24005MPS 3100 BR SCT080 BECMG 2517/2519 VRB02MPS

Observacions i pronòstics meteorològics de més de 4000 aeroports (METAR i TAF).

Les estacions disponibles són els punts grocs i vermells al mapa.

Posi el ratolí al punt desitjat per veure el nom de l'estació.

Feu clic per veure les observacions i els pronòstics meteorològics.

Per canviar el mapa: feu clic els botons verds amb una creu de color negre per apropar; al botó verd amb un guió per allunyar la imatge; o en les fletxes verdes per a mapes adjacents.


METAR-TAF: